EGNMEGNV

Guest
Details From EGNM - Leeds Bradford
To EGNV - Durham Tees Valley
Flight Number -
Tags generated
Created
Modified
Stats Distance 40 nm / 73 km
Max Altitude 2,800 ft / 853 m
Waypoints 3
Social Downloads 2
Likes 0
Share VATSIM

Download

Looking for another format? Having issues loading an existing format? Contact us
Advertisement - Login to hide

Notes

Basic altitude profile: - Ascent Rate: 2500ft/min - Ascent Speed: 250kts - Cruise Altitude: 35000ft - Cruise Speed: 420kts - Descent Rate: 1500ft/min - Descent Speed: 250kts Options: - Use NATs: yes - Use PACOTS: yes - Use low airways: yes - Use high airways: yes

Route

EGNM LEE EGNV

ID Type Via Altitude Latitude Longitude Leg Dist Tot Dist Heading (true) Name
O EGNM APT - 0 ft / 0 m 53.86603˚ -1.66078˚ - 0 nm - Leeds Bradford
LEE VOR - 2,800 ft / 853 m 54.29711˚ -1.53687˚ 26 nm 26 nm 10° / 10° -
O EGNV APT - 0 ft / 0 m 54.50919˚ -1.42943˚ 13 nm 39 nm 16° / 16° Durham Tees Valley

Altitude Profile

Advertisement - Login to hide

EGNM

Details ICAO EGNM (LBA)
Name Leeds Bradford
Region United Kingdom
Timezone Europe/London (UTC+0.0)
Stats Elevation 681 ft / 208 m (AMSL)
Location 53.866027° -1.660778°
Runways 1
Magnetic Variation 1.298° W

METAR

EGNM 151950Z 30012KT CAVOK 02/M02 Q1009

Decode

TAF

TAF TAF EGNM 151702Z 1518/1618 31011KT 9999 FEW018

Decode

Departure Runways

ID Width Length Bearing (true) Bearing (mag) Surface Threshold Offset Overrun Length
14 151 ft / 46 m 7,377 ft / 2,248 m 137.79° 139.09° Concrete 1,024 ft / 312 m 46 ft / 14 m
32 151 ft / 46 m 7,377 ft / 2,248 m 317.81° 319.11° Concrete 899 ft / 274 m 49 ft / 15 m

EGNV

Details ICAO EGNV (MME)
Name Durham Tees Valley
Region United Kingdom
Timezone Europe/London (UTC+0.0)
Stats Elevation 120 ft / 37 m (AMSL)
Location 54.509191° -1.429433°
Runways 1
Magnetic Variation 1.299° W

METAR

EGNV 151950Z 29011KT 9999 FEW038 02/M01 Q1009

Decode

TAF

Not found

Destination Runways

ID Width Length Bearing (true) Bearing (mag) Surface Threshold Offset Overrun Length
05 148 ft / 45 m 7,501 ft / 2,286 m 47.37° 48.67° Asphalt 0 ft / 0 m 400 ft / 122 m
23 148 ft / 45 m 7,501 ft / 2,286 m 227.39° 228.69° Asphalt 0 ft / 0 m 0 ft / 0 m

Approach Navaids

Runway Type Ident Frequency Range Bearing (true) Bearing (mag) Slope Elevation
05 Localiser ITSE 108.50 MHz 18 nm / 33 km 47.43° 48.73° - 115 ft / 35 m (AMSL)
05 Glidescope ITSE 108.50 MHz 10 nm / 19 km 47.38° 48.68° 3.00° 146 ft / 45 m (AMSL)
05 DME ITSE 108.50 MHz 18 nm / 33 km - - - 131 ft / 40 m (AMSL)
23 Localiser ITD 108.50 MHz 18 nm / 33 km 227.34° 228.64° - 135 ft / 41 m (AMSL)
23 Glidescope ITD 108.50 MHz 10 nm / 19 km 227.38° 228.68° 3.00° 146 ft / 45 m (AMSL)
23 DME ITD 108.50 MHz 18 nm / 33 km - - - 131 ft / 40 m (AMSL)